NCAR-RAP Real-Time Weather Data

Output produced by METARs form (06 May 2021  16:08 UTC)
found at http://weather.rap.ucar.edu/surface/
 
KAPN 061554Z VRB05KT 10SM FEW060 OVC100 11/M03 A3010 RMK AO2 SLP199 T01111033
KAPN 061454Z 36007KT 10SM CLR 11/M03 A3011 RMK AO2 SLP202 T01061033 58004
KAPN 061354Z 35006KT 10SM CLR 09/M02 A3012 RMK AO2 SLP205 T00891017
KAPN 061254Z 33004KT 10SM CLR 06/01 A3013 RMK AO2 SLP208 T00610006
KAPN 061154Z 25003KT 10SM CLR 02/00 A3013 RMK AO2 SLP207 T00220000 10022 20000 53005
KAPN 061054Z AUTO 28003KT 10SM CLR 01/M01 A3012 RMK AO2 SLP204 T00061006
KAPN 060954Z AUTO VRB03KT 10SM FEW120 01/M01 A3011 RMK AO2 SLP202 T00111006
KAPN 060854Z AUTO 30003KT 10SM CLR 02/00 A3011 RMK AO2 SLP202 T00170000 56004
KAPN 060754Z AUTO 28004KT 10SM CLR 02/00 A3011 RMK AO2 SLP202 T00170000
KAPN 060654Z AUTO 31004KT 10SM CLR 02/00 A3011 RMK AO2 SLP203 T00170000
KAPN 060554Z AUTO 00000KT 10SM CLR 02/M01 A3012 RMK AO2 SLP206 T00171006 10100 20011 50000
KAPN 060454Z AUTO 32005KT 10SM CLR 03/M01 A3013 RMK AO2 SLP208 T00281006 401330022
KAPN 060354Z AUTO 31003KT 10SM CLR 03/M02 A3013 RMK AO2 SLP209 T00281017
KAPN 060254Z AUTO 30003KT 10SM CLR 04/M02 A3012 RMK AO2 SLP206 T00441017 51019
KAPN 060154Z AUTO 32004KT 10SM CLR 06/M02 A3011 RMK AO2 SLP202 T00611022
KAPN 060054Z AUTO 32009KT 10SM CLR 08/M02 A3008 RMK AO2 SLP193 T00781022